Observations for LONDON GATWICK ARPT, United Kingdom (EGKK)

EGKK 250350Z 20002KT CAVOK M03/M03 Q1012
EGKK 250320Z VRB03KT 9000 NSC M02/M03 Q1012 
EGKK 250250Z VRB01KT CAVOK M02/M03 Q1012
EGKK 250220Z 13001KT 8000 NSC M02/M03 Q1012 
EGKK 250150Z 00000KT 6000 NSC M03/M03 Q1012 
EGKK 250120Z 22001KT 5000 BR NSC M02/M02 Q1012  
EGKK 250050Z 18001KT 6000 NSC M02/M02 Q1012 
EGKK 250020Z 16001KT 8000 NSC M01/M02 Q1012 
EGKK 242350Z VRB01KT 7000 NSC M01/M01 Q1013 
EGKK 242320Z 26001KT 8000 NSC M01/M02 Q1013 
EGKK 242250Z 18001KT 7000 NSC M01/M01 Q1012 
EGKK 242220Z 17001KT 8000 VCFG NSC M00/M01 Q1012
EGKK 242150Z 18002KT 9000 NSC M00/M01 Q1012 
EGKK 242120Z 28001KT 9000 NSC 00/M00 Q1012  
EGKK 242050Z VRB02KT 8000 NSC 00/M00 Q1012  
EGKK 242020Z VRB01KT 8000 NSC 01/00 Q1012   
EGKK 241950Z VRB01KT CAVOK 02/01 Q1012  
EGKK 241920Z 19001KT CAVOK 02/01 Q1012  
EGKK 241850Z VRB02KT CAVOK 03/01 Q1012  
EGKK 241820Z VRB03KT CAVOK 04/02 Q1012  
EGKK 241750Z 32004KT 270V340 CAVOK 06/03 Q1012  
EGKK 241720Z 31005KT CAVOK 06/03 Q1012  
EGKK 241650Z 31005KT 280V340 CAVOK 06/03 Q1012  
EGKK 241620Z 32005KT 280V350 CAVOK 07/03 Q1012  
EGKK 241550Z 32004KT 260V350 CAVOK 07/03 Q1011  
EGKK 241520Z 32004KT 280V340 CAVOK 07/03 Q1011  
EGKK 241450Z 32004KT 280V010 CAVOK 07/03 Q1011  
EGKK 241420Z 33004KT 290V010 CAVOK 07/04 Q1011  
EGKK 241350Z 31004KT 280V340 CAVOK 08/04 Q1011  
EGKK 241320Z 29004KT 230V330 CAVOK 07/04 Q1011  
EGKK 241250Z 28003KT CAVOK 07/04 Q1011  
EGKK 241220Z 30005KT CAVOK 07/04 Q1011  
EGKK 241150Z 33004KT 280V010 CAVOK 08/03 Q1011  
EGKK 241120Z VRB01KT 9999 FEW040 07/04 Q1011
EGKK 241050Z VRB03KT CAVOK 07/04 Q1011  
EGKK 241020Z 32005KT 290V350 CAVOK 07/04 Q1011  
EGKK 240950Z 32007KT 280V340 CAVOK 07/04 Q1011  
EGKK 240920Z 32006KT CAVOK 07/04 Q1010  
EGKK 240850Z VRB02KT CAVOK 06/04 Q1009  
EGKK 240820Z VRB01KT CAVOK 05/03 Q1009  
EGKK 240750Z VRB03KT CAVOK 06/04 Q1009  
EGKK 240720Z VRB03KT 9999 -RA FEW048 06/04 Q1009
EGKK 240650Z VRB02KT 9999 FEW031 SCT047 06/04 Q1008 
EGKK 240620Z 28004KT 250V320 CAVOK 06/04 Q1008  
EGKK 240550Z 27003KT CAVOK 06/03 Q1008  
EGKK 240520Z 26003KT CAVOK 05/03 Q1007  
EGKK 240450Z VRB02KT CAVOK 05/03 Q1007  
EGKK 240420Z VRB01KT CAVOK 04/03 Q1007  
EGKK 240350Z 27002KT CAVOK 05/03 Q1006  
EGKK 240320Z 20002KT CAVOK 06/04 Q1006  
EGKK 240250Z VRB01KT 9999 FEW039 06/04 Q1006